Time;durP1;ratioP1;P1;durP2;ratioP2;P2;SDS_P1;SDS_P2;PMS_P1;PMS_P2;Temp;Humidity;BMP_temperature;BMP_pressure;BME280_temperature;BME280_humidity;BME280_pressure;Samples;Min_cycle;Max_cycle;Signal;HPM_P1;HPM_P2
2021/03/13 09:07:40;;;;;;;2.23;0.77;;;10.90;91.70;;;;;;5125293;27;20787;-91
2021/03/13 09:10:08;;;;;;;5.03;2.60;;;11.00;91.50;;;;;;5102621;28;20619;-89
2021/03/13 09:12:37;;;;;;;1.87;1.10;;;11.10;91.70;;;;;;5107759;28;20671;-91
2021/03/13 09:15:06;;;;;;;3.43;0.80;;;11.10;91.10;;;;;;5118779;28;20651;-89
2021/03/13 09:17:41;;;;;;;2.13;1.10;;;11.10;91.00;;;;;;5113977;28;21176;-92
2021/03/13 09:20:11;;;;;;;2.17;0.90;;;11.10;91.10;;;;;;5111994;28;20999;-91
2021/03/13 09:22:40;;;;;;;1.37;0.90;;;11.20;90.30;;;;;;5110428;28;20687;-92
2021/03/13 09:25:10;;;;;;;1.67;0.80;;;11.20;90.20;;;;;;5107478;28;20722;-93
2021/03/13 09:27:37;;;;;;;1.60;0.80;;;11.30;90.20;;;;;;5110102;28;21221;-91
2021/03/13 09:30:07;;;;;;;2.87;0.90;;;11.20;90.10;;;;;;5109695;28;21277;-92
2021/03/13 09:32:43;;;;;;;0.60;0.40;;;11.40;90.60;;;;;;5106599;28;20651;-91
2021/03/13 09:35:11;;;;;;;0.83;0.63;;;11.50;90.20;;;;;;5105205;28;20730;-92
2021/03/13 09:37:41;;;;;;;3.10;0.63;;;11.60;90.40;;;;;;5109304;28;20673;-93
2021/03/13 09:40:10;;;;;;;0.80;0.50;;;11.70;90.20;;;;;;5109322;28;20663;-92
2021/03/13 09:42:39;;;;;;;2.20;0.57;;;11.70;90.00;;;;;;5119199;28;20654;-93
2021/03/13 09:45:11;;;;;;;1.60;1.43;;;11.80;89.60;;;;;;5117194;28;20620;-93
2021/03/13 09:47:44;;;;;;;1.97;0.70;;;11.70;89.10;;;;;;5106463;27;20950;-93
2021/03/13 09:50:11;;;;;;;1.27;0.67;;;11.90;88.90;;;;;;5117974;28;20624;-94
2021/03/13 09:52:40;;;;;;;1.37;0.90;;;11.90;88.50;;;;;;5127893;28;20647;-93
2021/03/13 09:55:09;;;;;;;2.87;0.70;;;11.90;88.10;;;;;;5124751;28;20641;-93
2021/03/13 09:57:39;;;;;;;1.80;0.70;;;12.00;88.40;;;;;;5114802;28;20654;-94
2021/03/13 10:00:09;;;;;;;0.80;0.50;;;12.30;87.90;;;;;;5115255;28;20744;-94
2021/03/13 10:02:38;;;;;;;0.80;0.70;;;12.40;88.60;;;;;;5107522;28;20662;-94
2021/03/13 10:05:06;;;;;;;1.73;0.60;;;12.20;88.80;;;;;;5122711;28;20646;-92
2021/03/13 10:07:38;;;;;;;1.47;0.80;;;11.90;88.40;;;;;;5116410;28;20639;-91
2021/03/13 10:10:17;;;;;;;2.73;0.97;;;11.70;89.20;;;;;;5108199;28;21147;-92
2021/03/13 10:12:45;;;;;;;3.20;0.87;;;11.70;90.10;;;;;;5112624;28;20638;-91
2021/03/13 10:15:13;;;;;;;10.67;0.97;;;11.60;89.90;;;;;;5105046;28;21119;-93
2021/03/13 10:17:53;;;;;;;1.90;0.63;;;11.80;90.90;;;;;;5102859;28;20653;-93
2021/03/13 10:20:20;;;;;;;1.20;0.67;;;11.60;90.70;;;;;;5099011;28;20674;-92
2021/03/13 10:22:47;;;;;;;3.03;0.70;;;11.50;90.60;;;;;;5112762;28;20673;-92
2021/03/13 10:25:14;;;;;;;1.00;0.50;;;11.50;90.80;;;;;;5096539;28;21158;-92
2021/03/13 10:27:41;;;;;;;1.73;0.80;;;11.40;90.90;;;;;;5104049;28;20624;-92
2021/03/13 10:30:11;;;;;;;1.80;0.60;;;11.50;91.10;;;;;;5094089;28;20635;-94
2021/03/13 10:32:40;;;;;;;0.53;0.50;;;11.60;91.10;;;;;;5088125;28;20669;-93
2021/03/13 10:35:16;;;;;;;1.23;0.50;;;11.60;90.80;;;;;;5096285;28;20670;-93
2021/03/13 10:37:45;;;;;;;1.13;1.00;;;11.50;91.00;;;;;;5089630;28;20631;-92
2021/03/13 10:40:29;;;;;;;0.70;0.50;;;11.50;91.10;;;;;;5100492;28;20632;-92
2021/03/13 10:43:29;;;;;;;1.43;0.40;;;11.60;91.00;;;;;;5095990;28;20704;-92
2021/03/13 10:46:10;;;;;;;1.17;0.50;;;11.50;90.80;;;;;;5090042;28;20677;-91
2021/03/13 10:48:58;;;;;;;1.03;0.70;;;11.50;91.00;;;;;;5098095;28;20746;-94
2021/03/13 10:51:25;;;;;;;1.20;0.70;;;11.50;90.80;;;;;;5090622;28;20636;-91
2021/03/13 10:53:53;;;;;;;1.60;0.70;;;11.60;91.20;;;;;;5096430;28;20969;-92
2021/03/13 10:56:23;;;;;;;3.80;0.70;;;11.60;91.20;;;;;;5092852;28;20664;-92
2021/03/13 10:58:57;;;;;;;1.80;0.77;;;11.60;91.00;;;;;;5093127;28;21402;-92
2021/03/13 11:01:24;;;;;;;0.43;0.30;;;11.60;90.90;;;;;;5097602;28;20632;-93
2021/03/13 11:03:53;;;;;;;1.90;0.40;;;11.60;90.90;;;;;;5097291;28;20632;-93
2021/03/13 11:07:04;;;;;;;1.03;0.40;;;11.60;90.50;;;;;;5098202;28;20996;-92
2021/03/13 11:09:31;;;;;;;0.50;0.47;;;11.70;90.70;;;;;;5093676;28;20699;-92
2021/03/13 11:11:59;;;;;;;0.73;0.50;;;11.80;90.90;;;;;;5094115;28;20662;-92
2021/03/13 11:14:26;;;;;;;1.20;0.30;;;11.70;90.30;;;;;;5098174;28;20652;-92
2021/03/13 11:16:54;;;;;;;1.47;0.43;;;11.60;90.40;;;;;;5111749;28;20743;-91
2021/03/13 11:19:25;;;;;;;0.60;0.50;;;11.60;90.10;;;;;;5104624;28;20634;-91
2021/03/13 11:21:52;;;;;;;1.27;0.50;;;11.70;90.40;;;;;;5097942;28;20724;-91
2021/03/13 11:24:19;;;;;;;2.53;0.60;;;11.70;90.40;;;;;;5097291;28;22043;-92
2021/03/13 11:26:51;;;;;;;0.70;0.40;;;11.70;90.30;;;;;;5096059;28;20632;-92
2021/03/13 11:32:09;;;;;;;1.03;0.40;;;11.80;89.90;;;;;;5100444;28;20647;-93
2021/03/13 11:34:36;;;;;;;1.90;0.90;;;11.90;89.70;;;;;;5096927;28;20632;-92
2021/03/13 11:37:03;;;;;;;1.17;0.53;;;11.90;88.80;;;;;;5094270;28;20663;-92
2021/03/13 11:39:30;;;;;;;0.80;0.47;;;12.00;89.40;;;;;;5097050;28;20627;-93
2021/03/13 11:41:58;;;;;;;1.67;0.47;;;12.00;89.10;;;;;;5105843;28;20727;-92
2021/03/13 11:47:07;;;;;;;1.77;0.77;;;12.00;89.00;;;;;;5111064;28;20700;-93
2021/03/13 11:49:35;;;;;;;0.77;0.40;;;12.10;88.30;;;;;;5108565;28;20614;-92
2021/03/13 11:52:02;;;;;;;0.80;0.37;;;12.00;87.60;;;;;;5099442;28;20681;-92
2021/03/13 11:54:32;;;;;;;1.07;0.50;;;12.10;87.60;;;;;;5101921;28;20640;-91
2021/03/13 11:56:58;;;;;;;1.33;0.83;;;12.20;87.80;;;;;;5093131;28;20636;-91
2021/03/13 11:59:25;;;;;;;2.93;0.40;;;12.20;87.70;;;;;;5102404;28;20627;-92
2021/03/13 12:01:54;;;;;;;0.50;0.47;;;12.20;87.20;;;;;;5089326;28;20637;-92
2021/03/13 12:04:21;;;;;;;1.20;0.60;;;12.20;87.20;;;;;;5095988;28;20635;-94
2021/03/13 12:06:50;;;;;;;0.93;0.57;;;12.10;87.60;;;;;;5090933;28;21234;-92
2021/03/13 12:09:16;;;;;;;1.20;0.50;;;12.20;87.60;;;;;;5092682;28;20624;-91
2021/03/13 12:11:42;;;;;;;1.17;0.50;;;12.10;87.30;;;;;;5092858;28;20611;-91
2021/03/13 12:14:11;;;;;;;0.87;0.73;;;12.10;87.50;;;;;;5090421;28;20959;-92
2021/03/13 12:17:11;;;;;;;1.00;0.60;;;12.00;88.10;;;;;;5095965;28;20748;-91
2021/03/13 12:19:37;;;;;;;1.17;0.70;;;12.10;88.00;;;;;;5101106;28;20640;-92
2021/03/13 12:22:05;;;;;;;0.70;0.40;;;12.10;89.20;;;;;;5096000;28;20659;-91
2021/03/13 12:24:33;;;;;;;1.63;0.50;;;12.00;90.00;;;;;;5096942;28;20632;-93
2021/03/13 12:27:00;;;;;;;1.93;0.60;;;11.90;90.90;;;;;;5088295;28;20651;-92
2021/03/13 12:29:26;;;;;;;0.80;0.40;;;11.70;92.30;;;;;;5097502;28;20607;-91
2021/03/13 12:31:53;;;;;;;1.53;0.40;;;11.70;92.00;;;;;;5092953;28;20659;-91
2021/03/13 12:34:21;;;;;;;2.93;0.50;;;11.80;91.70;;;;;;5089550;28;21618;-91
2021/03/13 12:36:48;;;;;;;0.60;0.40;;;11.90;91.90;;;;;;5092268;28;20656;-90
2021/03/13 12:39:16;;;;;;;0.80;0.60;;;11.90;92.10;;;;;;5090528;28;20678;-91
2021/03/13 12:41:43;;;;;;;1.73;1.60;;;11.90;92.40;;;;;;5092775;28;21166;-92
2021/03/13 12:44:10;;;;;;;0.73;0.70;;;12.30;92.60;;;;;;5091724;28;20739;-92
2021/03/13 12:46:37;;;;;;;1.13;0.47;;;12.30;92.20;;;;;;5088828;28;20638;-93
2021/03/13 12:49:06;;;;;;;1.30;0.70;;;12.30;92.10;;;;;;5088263;28;20639;-92
2021/03/13 12:51:37;;;;;;;1.53;0.60;;;12.40;92.20;;;;;;5088362;28;20636;-93
2021/03/13 12:54:04;;;;;;;1.23;0.60;;;12.60;91.80;;;;;;5090630;28;20635;-92
2021/03/13 12:56:31;;;;;;;1.57;1.33;;;12.60;92.00;;;;;;5085276;28;20664;-92
2021/03/13 12:58:57;;;;;;;0.73;0.73;;;12.40;92.10;;;;;;5091998;28;20648;-93
2021/03/13 13:01:25;;;;;;;1.63;0.90;;;12.50;92.60;;;;;;5087883;28;20713;-91
2021/03/13 13:03:55;;;;;;;0.40;0.30;;;12.10;93.00;;;;;;5089007;28;20592;-90
2021/03/13 13:06:21;;;;;;;2.80;0.50;;;11.90;93.60;;;;;;5087086;28;21098;-92
2021/03/13 13:08:49;;;;;;;1.90;0.57;;;11.70;94.50;;;;;;5092509;28;20625;-92
2021/03/13 13:11:15;;;;;;;0.90;0.70;;;11.40;95.50;;;;;;5089080;28;20611;-90
2021/03/13 13:13:41;;;;;;;0.73;0.50;;;11.20;96.70;;;;;;5098690;28;20660;-92
2021/03/13 13:16:08;;;;;;;1.00;0.60;;;10.90;98.70;;;;;;5104087;28;20667;-91
2021/03/13 13:18:38;;;;;;;0.90;0.77;;;11.00;99.90;;;;;;5110022;28;20618;-91
2021/03/13 13:21:05;;;;;;;1.27;0.50;;;10.60;99.90;;;;;;5097114;28;20631;-91
2021/03/13 13:23:32;;;;;;;1.37;0.60;;;8.10;99.90;;;;;;5098727;28;20655;-92
2021/03/13 13:26:00;;;;;;;1.53;0.57;;;7.30;99.90;;;;;;5093921;28;21193;-93
2021/03/13 13:28:28;;;;;;;0.70;0.50;;;6.80;99.90;;;;;;5097752;28;20625;-93
2021/03/13 13:30:54;;;;;;;0.80;0.47;;;6.60;99.90;;;;;;5097990;28;20628;-93
2021/03/13 13:33:24;;;;;;;0.40;0.30;;;6.50;99.90;;;;;;5101906;28;20721;-94
2021/03/13 13:35:57;;;;;;;0.50;0.40;;;6.40;99.90;;;;;;5109920;28;20624;-94
2021/03/13 13:38:28;;;;;;;1.03;0.40;;;6.30;99.90;;;;;;5114357;28;20652;-94
2021/03/13 13:40:56;;;;;;;0.60;0.50;;;6.20;99.90;;;;;;5104248;28;20660;-94
2021/03/13 13:43:29;;;;;;;1.40;0.53;;;6.20;99.90;;;;;;5097318;28;20676;-95
2021/03/13 13:45:58;;;;;;;1.07;0.30;;;6.30;99.90;;;;;;5105831;28;20655;-95
2021/03/13 13:48:25;;;;;;;0.70;0.43;;;6.30;99.90;;;;;;5106753;28;20639;-95
2021/03/13 13:50:53;;;;;;;0.50;0.50;;;6.30;99.90;;;;;;5105826;28;20722;-95
2021/03/13 13:53:21;;;;;;;0.60;0.43;;;6.50;99.90;;;;;;5111028;28;20723;-95
2021/03/13 13:55:49;;;;;;;0.80;0.53;;;6.50;99.90;;;;;;5119683;28;20630;-93
2021/03/13 13:58:17;;;;;;;0.60;0.60;;;6.60;99.90;;;;;;5095505;28;20639;-94
2021/03/13 14:00:44;;;;;;;0.50;0.40;;;6.50;99.90;;;;;;5114194;28;20626;-94
2021/03/13 14:03:11;;;;;;;1.83;0.40;;;6.50;99.90;;;;;;5099572;28;20643;-95
2021/03/13 14:05:38;;;;;;;0.43;0.40;;;6.40;99.90;;;;;;5100174;28;20747;-95
2021/03/13 14:08:09;;;;;;;1.03;0.37;;;6.40;99.90;;;;;;5104369;28;20635;-94
2021/03/13 14:10:41;;;;;;;0.50;0.30;;;6.50;99.90;;;;;;5108270;28;20628;-95
2021/03/13 14:13:13;;;;;;;0.80;0.40;;;6.60;99.90;;;;;;5115050;28;20660;-95
2021/03/13 14:15:41;;;;;;;1.30;0.40;;;6.70;99.90;;;;;;5104057;28;20688;-94
2021/03/13 14:18:14;;;;;;;0.60;0.40;;;6.80;99.90;;;;;;5099814;28;20624;-96
2021/03/13 14:20:45;;;;;;;0.70;0.40;;;6.90;99.90;;;;;;5098366;28;20722;-95
2021/03/13 14:23:16;;;;;;;0.87;0.83;;;7.00;99.90;;;;;;5106619;28;20636;-95
2021/03/13 14:25:43;;;;;;;1.50;0.60;;;7.10;99.90;;;;;;5102851;28;20620;-94
2021/03/13 14:28:10;;;;;;;1.43;0.50;;;7.20;99.90;;;;;;5104444;28;20622;-96
2021/03/13 14:30:45;;;;;;;0.50;0.40;;;7.30;99.90;;;;;;5098903;28;20643;-94
2021/03/13 14:33:23;;;;;;;0.90;0.60;;;7.40;99.90;;;;;;5103025;28;20654;-96
2021/03/13 14:35:59;;;;;;;4.63;1.13;;;7.30;99.90;;;;;;5104120;28;20631;-95
2021/03/13 14:38:27;;;;;;;0.77;0.40;;;7.20;99.90;;;;;;5115198;28;20683;-93
2021/03/13 14:40:54;;;;;;;1.97;0.70;;;7.20;99.90;;;;;;5117839;28;20659;-94
2021/03/13 14:43:22;;;;;;;0.90;0.80;;;7.20;99.90;;;;;;5115670;28;20636;-95
2021/03/13 14:45:54;;;;;;;1.00;0.70;;;7.10;99.90;;;;;;5101052;28;20631;-93
2021/03/13 14:48:27;;;;;;;2.90;0.97;;;7.10;99.90;;;;;;5095844;28;20719;-94
2021/03/13 14:50:56;;;;;;;2.23;0.80;;;7.10;99.90;;;;;;5096733;28;20637;-94
2021/03/13 14:53:26;;;;;;;1.17;0.67;;;7.10;99.90;;;;;;5091996;28;20631;-93
2021/03/13 14:55:55;;;;;;;0.87;0.60;;;7.10;99.90;;;;;;5092283;28;20715;-93
2021/03/13 14:58:23;;;;;;;0.83;0.77;;;7.10;99.90;;;;;;5092339;28;20632;-94
2021/03/13 15:00:50;;;;;;;3.80;0.50;;;7.10;99.90;;;;;;5099869;28;20631;-91
2021/03/13 15:03:17;;;;;;;0.80;0.57;;;7.10;99.90;;;;;;5092355;28;20653;-94
2021/03/13 15:05:46;;;;;;;0.60;0.50;;;7.00;99.90;;;;;;5094885;28;21230;-92
2021/03/13 15:08:13;;;;;;;0.93;0.93;;;7.00;99.90;;;;;;5094347;28;20736;-92
2021/03/13 15:10:40;;;;;;;1.90;0.70;;;7.00;99.90;;;;;;5099960;28;20631;-94
2021/03/13 15:13:08;;;;;;;1.90;0.50;;;6.90;99.90;;;;;;5098632;28;20672;-94
2021/03/13 15:15:37;;;;;;;0.80;0.70;;;6.80;99.90;;;;;;5097056;28;20636;-93
2021/03/13 15:18:04;;;;;;;1.17;0.77;;;6.70;99.90;;;;;;5095082;28;20656;-93
2021/03/13 15:20:30;;;;;;;0.97;0.70;;;6.60;99.90;;;;;;5093926;28;21274;-93
2021/03/13 15:23:00;;;;;;;2.33;0.57;;;6.50;99.90;;;;;;5093207;28;20671;-93
2021/03/13 15:25:26;;;;;;;0.77;0.47;;;6.50;99.90;;;;;;5096846;28;21055;-93
2021/03/13 15:27:55;;;;;;;0.90;0.73;;;6.40;99.90;;;;;;5102812;28;21070;-93
2021/03/13 15:30:24;;;;;;;0.87;0.60;;;6.30;99.90;;;;;;5094937;28;20667;-94
2021/03/13 15:32:53;;;;;;;0.67;0.60;;;6.30;99.90;;;;;;5094844;28;20674;-93
2021/03/13 15:35:22;;;;;;;1.03;0.80;;;6.20;99.90;;;;;;5095284;28;20616;-94
2021/03/13 15:37:50;;;;;;;1.50;1.30;;;6.20;99.90;;;;;;5104956;28;20696;-93
2021/03/13 15:40:19;;;;;;;0.87;0.67;;;6.10;99.90;;;;;;5098278;28;20644;-93
2021/03/13 15:42:48;;;;;;;0.77;0.70;;;6.10;99.90;;;;;;5092059;28;20685;-93
2021/03/13 15:45:15;;;;;;;1.23;0.57;;;6.00;99.90;;;;;;5090253;28;20632;-93
2021/03/13 15:47:42;;;;;;;1.50;0.60;;;6.10;99.90;;;;;;5090294;28;20661;-93
2021/03/13 15:50:12;;;;;;;1.50;0.50;;;6.00;99.90;;;;;;5093654;28;20626;-92
2021/03/13 15:52:40;;;;;;;1.10;0.80;;;6.00;99.90;;;;;;5088683;28;20657;-92
2021/03/13 15:55:12;;;;;;;1.47;0.70;;;6.00;99.90;;;;;;5110446;28;20719;-93
2021/03/13 15:57:46;;;;;;;1.77;0.57;;;5.90;99.90;;;;;;5091961;28;21054;-92
2021/03/13 16:00:14;;;;;;;4.53;0.83;;;5.90;99.90;;;;;;5090311;28;20721;-94
2021/03/13 16:02:42;;;;;;;1.10;1.00;;;5.90;99.90;;;;;;5093233;28;20660;-92
2021/03/13 16:05:10;;;;;;;0.73;0.73;;;5.90;99.90;;;;;;5100484;28;20624;-93
2021/03/13 16:07:37;;;;;;;1.63;1.17;;;5.90;99.90;;;;;;5094471;28;20633;-91
2021/03/13 16:10:10;;;;;;;1.60;1.43;;;5.90;99.90;;;;;;5090526;28;20658;-91
2021/03/13 16:12:38;;;;;;;1.83;0.70;;;5.90;99.90;;;;;;5094973;28;20674;-91
2021/03/13 16:15:13;;;;;;;1.47;0.70;;;5.90;99.90;;;;;;5093604;28;21270;-93
2021/03/13 16:17:41;;;;;;;0.87;0.60;;;5.90;99.90;;;;;;5096446;28;20999;-93
2021/03/13 16:20:11;;;;;;;0.50;0.40;;;6.10;99.90;;;;;;5093072;28;21065;-92
2021/03/13 16:22:38;;;;;;;0.97;0.70;;;6.10;99.90;;;;;;5089230;28;20663;-93
2021/03/13 16:25:08;;;;;;;0.80;0.57;;;6.10;99.90;;;;;;5089564;28;20634;-93
2021/03/13 16:27:34;;;;;;;0.60;0.50;;;6.20;99.90;;;;;;5088922;28;20632;-92
2021/03/13 16:30:02;;;;;;;1.03;0.60;;;6.20;99.90;;;;;;5084282;28;20628;-94
2021/03/13 16:32:30;;;;;;;0.60;0.60;;;6.20;99.90;;;;;;5088090;28;20656;-91
2021/03/13 16:34:57;;;;;;;1.60;0.60;;;6.20;99.90;;;;;;5082350;28;20960;-92
2021/03/13 16:37:23;;;;;;;1.90;1.27;;;6.20;99.90;;;;;;5086968;28;21078;-91
2021/03/13 16:39:50;;;;;;;1.00;0.67;;;6.30;99.90;;;;;;5090396;28;20670;-92
2021/03/13 16:42:17;;;;;;;14.43;12.60;;;6.30;99.90;;;;;;5104405;28;20716;-91
2021/03/13 16:44:43;;;;;;;2.87;2.67;;;6.40;99.90;;;;;;5097967;28;20632;-92
2021/03/13 16:47:11;;;;;;;1.13;0.90;;;6.50;99.90;;;;;;5089850;28;20711;-91
2021/03/13 16:49:38;;;;;;;1.27;1.17;;;6.50;99.90;;;;;;5086822;28;20701;-91
2021/03/13 16:52:07;;;;;;;0.90;0.53;;;6.50;99.90;;;;;;5086866;28;20679;-90
2021/03/13 16:54:33;;;;;;;1.40;0.60;;;6.40;99.90;;;;;;5087186;28;21130;-91
2021/03/13 16:57:01;;;;;;;0.70;0.60;;;6.30;99.90;;;;;;5087694;28;20765;-91
2021/03/13 16:59:27;;;;;;;1.97;1.80;;;6.20;99.90;;;;;;5086836;28;20714;-90
2021/03/13 17:01:53;;;;;;;1.27;1.17;;;6.20;99.90;;;;;;5078202;28;20664;-90
2021/03/13 17:04:20;;;;;;;2.07;1.37;;;6.10;99.90;;;;;;5083059;28;21242;-90
2021/03/13 17:06:55;;;;;;;1.07;1.00;;;6.00;99.90;;;;;;5087032;28;20639;-90
2021/03/13 17:09:21;;;;;;;2.33;1.50;;;6.00;99.90;;;;;;5084390;28;20619;-91
2021/03/13 17:11:48;;;;;;;1.20;1.10;;;5.90;99.90;;;;;;5086575;28;20656;-91
2021/03/13 17:14:16;;;;;;;0.80;0.70;;;5.80;99.90;;;;;;5086967;28;20636;-92
2021/03/13 17:16:42;;;;;;;0.87;0.80;;;5.80;99.90;;;;;;5087410;28;20664;-91
2021/03/13 17:19:08;;;;;;;1.03;0.80;;;5.80;99.90;;;;;;5083323;28;20631;-91
2021/03/13 17:21:37;;;;;;;1.67;1.30;;;5.80;99.90;;;;;;5083873;28;20629;-91
2021/03/13 17:24:05;;;;;;;1.67;1.17;;;5.80;99.90;;;;;;5085362;28;21003;-90
2021/03/13 17:26:34;;;;;;;2.53;1.00;;;5.80;99.90;;;;;;5087258;28;20627;-92
2021/03/13 17:29:01;;;;;;;3.10;1.50;;;5.70;99.90;;;;;;5105976;28;20620;-91
2021/03/13 17:31:27;;;;;;;1.50;1.20;;;5.70;99.90;;;;;;5100645;28;20651;-89
2021/03/13 17:33:54;;;;;;;3.50;1.33;;;5.70;99.90;;;;;;5094129;28;20631;-90
2021/03/13 17:36:22;;;;;;;0.90;0.90;;;5.70;99.90;;;;;;5096900;28;20722;-92
2021/03/13 17:38:49;;;;;;;0.90;0.73;;;5.70;99.90;;;;;;5092096;28;20636;-91
2021/03/13 17:41:18;;;;;;;5.03;3.10;;;5.70;99.90;;;;;;5088633;28;20632;-91
2021/03/13 17:43:45;;;;;;;0.80;0.80;;;5.70;99.90;;;;;;5086487;28;20854;-90
2021/03/13 17:46:15;;;;;;;1.63;0.70;;;5.80;99.90;;;;;;5088399;28;20635;-90
2021/03/13 17:48:42;;;;;;;2.70;1.60;;;5.80;99.90;;;;;;5087809;28;20616;-90
2021/03/13 17:51:09;;;;;;;1.23;1.13;;;5.80;99.90;;;;;;5089178;28;20732;-91
2021/03/13 17:53:35;;;;;;;0.80;0.80;;;5.70;99.90;;;;;;5086729;28;20632;-92
2021/03/13 17:56:02;;;;;;;1.10;0.70;;;5.70;99.90;;;;;;5093251;28;20661;-91
2021/03/13 17:58:33;;;;;;;0.73;0.70;;;5.60;99.90;;;;;;5071460;28;20628;-91
2021/03/13 18:01:00;;;;;;;0.80;0.70;;;5.60;99.90;;;;;;5087665;28;20659;-91
2021/03/13 18:03:27;;;;;;;1.73;1.13;;;5.60;99.90;;;;;;5088381;28;20627;-89
2021/03/13 18:05:53;;;;;;;1.27;0.80;;;5.60;99.90;;;;;;5096667;28;20635;-91
2021/03/13 18:08:20;;;;;;;1.57;0.90;;;5.50;99.90;;;;;;5106654;28;20612;-92
2021/03/13 18:10:46;;;;;;;1.10;1.00;;;5.60;99.90;;;;;;5098886;28;20624;-92
2021/03/13 18:13:16;;;;;;;7.10;5.07;;;5.50;99.90;;;;;;5093362;28;20663;-91
2021/03/13 18:15:44;;;;;;;23.90;19.97;;;5.50;99.90;;;;;;5092697;28;20639;-91
2021/03/13 18:18:11;;;;;;;2.17;1.40;;;5.50;99.90;;;;;;5093238;28;20648;-91
2021/03/13 18:20:38;;;;;;;2.40;1.37;;;5.50;99.90;;;;;;5091008;28;20642;-91
2021/03/13 18:23:05;;;;;;;1.80;1.50;;;5.50;99.90;;;;;;5087960;28;20701;-92
2021/03/13 18:25:33;;;;;;;1.93;1.00;;;5.50;99.90;;;;;;5095239;28;20683;-93
2021/03/13 18:28:02;;;;;;;1.70;1.40;;;5.50;99.90;;;;;;5104376;28;20632;-90
2021/03/13 18:30:31;;;;;;;3.10;1.60;;;5.50;99.90;;;;;;5100798;28;20651;-92
2021/03/13 18:33:01;;;;;;;2.90;1.50;;;5.60;99.90;;;;;;5091574;28;20659;-92
2021/03/13 18:35:30;;;;;;;2.70;1.93;;;5.60;99.90;;;;;;5088473;28;20635;-91
2021/03/13 18:37:56;;;;;;;1.83;1.17;;;5.60;99.90;;;;;;5088327;28;20651;-91
2021/03/13 18:40:31;;;;;;;3.13;1.93;;;5.70;99.90;;;;;;5087327;28;20628;-92
2021/03/13 18:42:58;;;;;;;3.60;1.40;;;5.70;99.90;;;;;;5090575;28;20658;-92
2021/03/13 18:45:25;;;;;;;3.33;1.50;;;5.80;99.90;;;;;;5089329;28;20636;-92
2021/03/13 18:47:52;;;;;;;1.80;1.27;;;5.80;99.90;;;;;;5090044;28;20635;-91
2021/03/13 18:50:19;;;;;;;3.17;1.17;;;5.80;99.90;;;;;;5092354;28;20785;-91
2021/03/13 18:52:47;;;;;;;3.87;2.00;;;5.80;99.90;;;;;;5090965;28;21249;-92
2021/03/13 18:55:15;;;;;;;2.60;1.50;;;5.90;99.90;;;;;;5089703;28;20624;-91
2021/03/13 18:57:43;;;;;;;4.77;1.80;;;5.90;99.90;;;;;;5088691;28;20680;-91
2021/03/13 19:00:11;;;;;;;4.00;2.60;;;5.80;99.90;;;;;;5090460;28;20635;-91
2021/03/13 19:02:37;;;;;;;6.13;1.90;;;5.80;99.90;;;;;;5085478;28;20641;-91
2021/03/13 19:05:05;;;;;;;2.80;2.10;;;5.90;99.90;;;;;;5089977;28;20642;-92
2021/03/13 19:07:36;;;;;;;3.50;1.70;;;5.90;99.90;;;;;;5088031;28;20640;-92
2021/03/13 19:10:04;;;;;;;5.43;3.10;;;5.90;99.90;;;;;;5093858;28;20632;-90
2021/03/13 19:12:30;;;;;;;1.87;1.40;;;6.00;99.90;;;;;;5088323;28;21076;-91
2021/03/13 19:14:56;;;;;;;2.30;1.53;;;5.90;99.90;;;;;;5080810;28;20656;-92
2021/03/13 19:17:24;;;;;;;3.47;2.03;;;5.90;99.90;;;;;;5082084;28;20664;-90
2021/03/13 19:19:51;;;;;;;3.43;1.87;;;5.90;99.90;;;;;;5086192;28;20640;-92
2021/03/13 19:22:17;;;;;;;1.93;1.67;;;5.80;99.90;;;;;;5085431;28;20652;-91
2021/03/13 19:24:45;;;;;;;2.40;1.40;;;5.80;99.90;;;;;;5087627;28;20643;-88
2021/03/13 19:27:12;;;;;;;2.17;1.40;;;5.90;99.90;;;;;;5088747;28;20679;-91
2021/03/13 19:29:39;;;;;;;3.00;1.70;;;5.80;99.90;;;;;;5084123;28;20632;-92
2021/03/13 19:32:07;;;;;;;4.93;2.13;;;5.70;99.90;;;;;;5087866;28;20694;-90
2021/03/13 19:34:33;;;;;;;2.53;1.70;;;5.70;99.90;;;;;;5080582;28;21234;-89
2021/03/13 19:37:00;;;;;;;4.63;2.10;;;5.70;99.90;;;;;;5091761;28;20782;-90
2021/03/13 19:39:28;;;;;;;2.50;1.87;;;5.70;99.90;;;;;;5085709;28;20632;-90
2021/03/13 19:41:58;;;;;;;3.73;2.03;;;5.70;99.90;;;;;;5086460;28;20656;-90
2021/03/13 19:44:24;;;;;;;4.80;2.10;;;5.70;99.90;;;;;;5100486;28;20636;-90
2021/03/13 19:46:51;;;;;;;3.47;3.07;;;5.70;99.90;;;;;;5090918;28;21111;-89
2021/03/13 19:49:17;;;;;;;5.40;2.67;;;5.70;99.90;;;;;;5086545;28;20632;-89
2021/03/13 19:51:44;;;;;;;4.60;3.40;;;5.70;99.90;;;;;;5088764;28;20705;-89
2021/03/13 19:54:10;;;;;;;4.33;3.50;;;5.60;99.90;;;;;;5088441;28;20770;-89
2021/03/13 19:56:37;;;;;;;4.30;3.90;;;5.60;99.90;;;;;;5088306;28;20729;-88
2021/03/13 19:59:08;;;;;;;21.63;15.87;;;5.50;99.90;;;;;;5083193;28;20589;-88
2021/03/13 20:01:35;;;;;;;15.00;10.93;;;5.60;99.90;;;;;;5081189;28;20657;-88
2021/03/13 20:04:01;;;;;;;8.80;6.60;;;5.60;99.90;;;;;;5087794;28;20609;-89
2021/03/13 20:06:29;;;;;;;8.97;6.17;;;5.70;99.90;;;;;;5089234;28;20636;-90
2021/03/13 20:08:56;;;;;;;6.07;4.47;;;5.70;99.90;;;;;;5091969;28;20691;-92
2021/03/13 20:11:23;;;;;;;8.63;5.20;;;5.80;99.90;;;;;;5090758;28;20640;-90
2021/03/13 20:13:49;;;;;;;7.20;4.80;;;5.80;99.90;;;;;;5091200;28;20612;-89
2021/03/13 20:16:16;;;;;;;2.90;2.30;;;5.90;99.90;;;;;;5087931;28;20616;-87
2021/03/13 20:18:43;;;;;;;4.73;3.67;;;5.90;99.90;;;;;;5089129;28;20620;-87
2021/03/13 20:21:12;;;;;;;7.43;4.40;;;6.00;99.90;;;;;;5086738;28;21218;-87
2021/03/13 20:23:39;;;;;;;5.60;2.43;;;6.20;99.90;;;;;;5087475;28;20670;-87
2021/03/13 20:26:06;;;;;;;2.83;1.93;;;6.10;99.90;;;;;;5087220;28;21049;-87
2021/03/13 20:28:32;;;;;;;2.60;1.90;;;6.30;99.90;;;;;;5086942;28;20854;-89
2021/03/13 20:30:59;;;;;;;5.27;2.10;;;6.40;99.90;;;;;;5085370;28;20647;-88
2021/03/13 20:33:26;;;;;;;3.13;1.63;;;6.40;99.90;;;;;;5080452;28;20762;-88
2021/03/13 20:35:52;;;;;;;8.50;2.10;;;6.40;99.90;;;;;;5083396;28;20624;-88
2021/03/13 20:38:18;;;;;;;2.90;1.93;;;6.40;99.90;;;;;;5087247;28;20660;-88
2021/03/13 20:40:44;;;;;;;4.23;2.60;;;6.30;99.90;;;;;;5087577;28;20684;-89
2021/03/13 20:43:11;;;;;;;2.90;2.53;;;6.40;99.90;;;;;;5087351;28;20631;-89
2021/03/13 20:45:38;;;;;;;4.77;4.10;;;6.30;99.90;;;;;;5087167;28;20623;-87
2021/03/13 20:48:05;;;;;;;3.37;1.70;;;6.20;99.90;;;;;;5086684;28;20592;-87
2021/03/13 20:50:32;;;;;;;4.60;2.17;;;6.40;99.90;;;;;;5090134;28;20647;-89
2021/03/13 20:52:59;;;;;;;3.17;1.60;;;6.30;99.90;;;;;;5090405;28;21027;-88
2021/03/13 20:55:26;;;;;;;4.43;1.73;;;6.40;99.90;;;;;;5090517;28;20612;-88
2021/03/13 20:57:53;;;;;;;5.00;2.53;;;6.40;99.90;;;;;;5087228;28;20656;-89
2021/03/13 21:00:23;;;;;;;2.83;2.40;;;6.50;99.90;;;;;;5088366;28;21156;-90
2021/03/13 21:02:52;;;;;;;3.80;3.50;;;6.50;99.90;;;;;;5085086;28;20675;-87
2021/03/13 21:05:19;;;;;;;4.23;2.73;;;6.50;99.90;;;;;;5089195;28;20617;-88
2021/03/13 21:07:46;;;;;;;4.10;1.90;;;6.50;99.90;;;;;;5089135;28;20631;-88
2021/03/13 21:10:14;;;;;;;2.00;1.43;;;6.50;99.90;;;;;;5087969;28;20620;-88
2021/03/13 21:12:41;;;;;;;3.13;1.87;;;6.30;99.90;;;;;;5089428;28;20762;-89
2021/03/13 21:15:09;;;;;;;3.43;1.73;;;6.20;99.90;;;;;;5089523;28;20718;-88
2021/03/13 21:17:37;;;;;;;1.77;1.60;;;6.10;99.90;;;;;;5086713;28;20676;-90
2021/03/13 21:20:04;;;;;;;2.30;1.60;;;6.00;99.90;;;;;;5088205;28;21008;-89
2021/03/13 21:22:32;;;;;;;2.33;1.70;;;6.00;99.90;;;;;;5088115;28;20662;-89
2021/03/13 21:24:59;;;;;;;3.80;1.87;;;5.90;99.90;;;;;;5087731;28;20636;-90
2021/03/13 21:27:26;;;;;;;4.50;2.77;;;5.80;99.90;;;;;;5090350;28;20638;-89
2021/03/13 21:29:53;;;;;;;3.17;2.50;;;6.00;99.90;;;;;;5093202;28;21268;-88
2021/03/13 21:32:21;;;;;;;1.80;1.70;;;6.00;99.90;;;;;;5089805;28;20650;-89
2021/03/13 21:34:49;;;;;;;2.60;1.70;;;6.00;99.90;;;;;;5088805;28;21155;-90
2021/03/13 21:37:16;;;;;;;4.30;2.07;;;6.10;99.90;;;;;;5088178;28;21003;-88
2021/03/13 21:39:46;;;;;;;2.70;1.90;;;6.00;99.90;;;;;;5089138;28;20670;-89
2021/03/13 21:42:34;;;;;;;1.70;1.33;;;6.10;99.90;;;;;;5087613;28;21235;-89
2021/03/13 21:45:00;;;;;;;2.20;1.17;;;6.20;99.90;;;;;;5085472;28;20620;-89
2021/03/13 21:47:26;;;;;;;1.30;1.00;;;6.30;99.90;;;;;;5087513;28;20640;-89
2021/03/13 21:49:53;;;;;;;0.73;0.57;;;6.20;99.90;;;;;;5090149;28;20627;-89
2021/03/13 21:52:21;;;;;;;0.90;0.60;;;6.20;99.90;;;;;;5093932;28;20659;-89
2021/03/13 21:54:52;;;;;;;0.93;0.60;;;6.20;99.90;;;;;;5087858;28;21127;-88
2021/03/13 21:57:19;;;;;;;0.97;0.87;;;6.10;99.90;;;;;;5087272;28;20660;-87
2021/03/13 21:59:46;;;;;;;0.90;0.60;;;6.10;99.90;;;;;;5086312;28;20620;-88
2021/03/13 22:02:13;;;;;;;1.53;0.80;;;5.90;99.90;;;;;;5085668;28;20644;-89
2021/03/13 22:04:39;;;;;;;0.70;0.60;;;5.80;99.90;;;;;;5088464;28;20634;-89
2021/03/13 22:07:07;;;;;;;2.07;0.70;;;5.70;99.90;;;;;;5090264;28;20644;-90
2021/03/13 22:09:34;;;;;;;0.70;0.57;;;5.60;99.90;;;;;;5104401;28;20621;-90
2021/03/13 22:12:00;;;;;;;2.13;1.00;;;5.60;99.90;;;;;;5090489;28;20655;-89